sensor_id;sensor_type;location;lat;lon;timestamp;temperature;humidity
75130;HTU21D;63703;44.716;37.846;2023-05-02T00:02:14;9.20;86.41
75130;HTU21D;63703;44.716;37.846;2023-05-02T00:04:40;9.20;86.41
75130;HTU21D;63703;44.716;37.846;2023-05-02T00:07:06;9.21;86.43
75130;HTU21D;63703;44.716;37.846;2023-05-02T00:09:32;9.21;86.45
75130;HTU21D;63703;44.716;37.846;2023-05-02T00:11:58;9.21;86.45
75130;HTU21D;63703;44.716;37.846;2023-05-02T00:14:24;9.21;86.48
75130;HTU21D;63703;44.716;37.846;2023-05-02T00:16:53;9.23;86.48
75130;HTU21D;63703;44.716;37.846;2023-05-02T00:19:19;9.24;86.48
75130;HTU21D;63703;44.716;37.846;2023-05-02T00:21:48;9.24;86.50
75130;HTU21D;63703;44.716;37.846;2023-05-02T00:24:16;9.24;86.53
75130;HTU21D;63703;44.716;37.846;2023-05-02T00:26:42;9.23;86.55
75130;HTU21D;63703;44.716;37.846;2023-05-02T00:29:08;9.22;86.57
75130;HTU21D;63703;44.716;37.846;2023-05-02T00:31:34;9.22;86.60
75130;HTU21D;63703;44.716;37.846;2023-05-02T00:34:00;9.19;86.64
75130;HTU21D;63703;44.716;37.846;2023-05-02T00:36:26;9.19;86.65
75130;HTU21D;63703;44.716;37.846;2023-05-02T00:38:53;9.20;86.67
75130;HTU21D;63703;44.716;37.846;2023-05-02T00:41:18;9.17;86.68
75130;HTU21D;63703;44.716;37.846;2023-05-02T00:43:45;9.18;86.70
75130;HTU21D;63703;44.716;37.846;2023-05-02T00:46:11;9.18;86.71
75130;HTU21D;63703;44.716;37.846;2023-05-02T00:48:38;9.16;86.73
75130;HTU21D;63703;44.716;37.846;2023-05-02T00:51:04;9.17;86.74
75130;HTU21D;63703;44.716;37.846;2023-05-02T00:53:31;9.18;86.74
75130;HTU21D;63703;44.716;37.846;2023-05-02T00:55:57;9.18;86.77
75130;HTU21D;63703;44.716;37.846;2023-05-02T00:58:25;9.18;86.77
75130;HTU21D;63703;44.716;37.846;2023-05-02T01:00:59;9.19;86.82
75130;HTU21D;63703;44.716;37.846;2023-05-02T01:03:54;9.21;86.93
75130;HTU21D;63703;44.716;37.846;2023-05-02T01:12:09;9.20;86.91
75130;HTU21D;63703;44.716;37.846;2023-05-02T01:14:41;9.20;86.90
75130;HTU21D;63703;44.716;37.846;2023-05-02T01:17:13;9.22;86.94
75130;HTU21D;63703;44.716;37.846;2023-05-02T01:19:48;9.21;86.97
75130;HTU21D;63703;44.716;37.846;2023-05-02T01:22:16;9.22;86.93
75130;HTU21D;63703;44.716;37.846;2023-05-02T01:24:58;9.24;87.00
75130;HTU21D;63703;44.716;37.846;2023-05-02T01:30:18;9.24;86.92
75130;HTU21D;63703;44.716;37.846;2023-05-02T01:32:46;9.26;86.93
75130;HTU21D;63703;44.716;37.846;2023-05-02T01:35:15;9.27;86.93
75130;HTU21D;63703;44.716;37.846;2023-05-02T01:37:44;9.27;86.93
75130;HTU21D;63703;44.716;37.846;2023-05-02T01:40:12;9.30;86.93
75130;HTU21D;63703;44.716;37.846;2023-05-02T01:42:40;9.27;86.95
75130;HTU21D;63703;44.716;37.846;2023-05-02T01:45:10;9.30;86.98
75130;HTU21D;63703;44.716;37.846;2023-05-02T01:47:38;9.30;86.95
75130;HTU21D;63703;44.716;37.846;2023-05-02T01:50:07;9.30;86.96
75130;HTU21D;63703;44.716;37.846;2023-05-02T01:52:36;9.29;86.98
75130;HTU21D;63703;44.716;37.846;2023-05-02T01:55:05;9.30;86.99
75130;HTU21D;63703;44.716;37.846;2023-05-02T01:57:36;9.30;86.99
75130;HTU21D;63703;44.716;37.846;2023-05-02T02:00:04;9.31;86.99
75130;HTU21D;63703;44.716;37.846;2023-05-02T02:02:42;9.32;87.02
75130;HTU21D;63703;44.716;37.846;2023-05-02T02:05:13;9.31;87.02
75130;HTU21D;63703;44.716;37.846;2023-05-02T02:07:39;9.33;87.03
75130;HTU21D;63703;44.716;37.846;2023-05-02T02:10:05;9.34;87.02
75130;HTU21D;63703;44.716;37.846;2023-05-02T02:12:39;9.35;87.03
75130;HTU21D;63703;44.716;37.846;2023-05-02T02:15:31;9.38;87.16
75130;HTU21D;63703;44.716;37.846;2023-05-02T02:18:09;9.36;87.04
75130;HTU21D;63703;44.716;37.846;2023-05-02T02:20:37;9.35;87.03
75130;HTU21D;63703;44.716;37.846;2023-05-02T02:23:06;9.37;87.03
75130;HTU21D;63703;44.716;37.846;2023-05-02T02:25:33;9.36;87.04
75130;HTU21D;63703;44.716;37.846;2023-05-02T02:28:00;9.38;87.04
75130;HTU21D;63703;44.716;37.846;2023-05-02T02:30:26;9.37;87.04
75130;HTU21D;63703;44.716;37.846;2023-05-02T02:32:52;9.36;87.06
75130;HTU21D;63703;44.716;37.846;2023-05-02T02:35:18;9.36;87.06
75130;HTU21D;63703;44.716;37.846;2023-05-02T02:41:02;9.36;87.12
75130;HTU21D;63703;44.716;37.846;2023-05-02T02:43:57;9.35;87.18
75130;HTU21D;63703;44.716;37.846;2023-05-02T02:51:55;9.27;87.21
75130;HTU21D;63703;44.716;37.846;2023-05-02T02:54:44;9.27;87.32
75130;HTU21D;63703;44.716;37.846;2023-05-02T03:02:28;9.32;87.18
75130;HTU21D;63703;44.716;37.846;2023-05-02T03:04:56;9.35;87.13
75130;HTU21D;63703;44.716;37.846;2023-05-02T03:07:22;9.39;87.07
75130;HTU21D;63703;44.716;37.846;2023-05-02T03:09:49;9.42;87.03
75130;HTU21D;63703;44.716;37.846;2023-05-02T03:12:20;9.46;86.99
75130;HTU21D;63703;44.716;37.846;2023-05-02T03:14:47;9.50;86.94
75130;HTU21D;63703;44.716;37.846;2023-05-02T03:17:13;9.54;86.90
75130;HTU21D;63703;44.716;37.846;2023-05-02T03:19:40;9.57;86.85
75130;HTU21D;63703;44.716;37.846;2023-05-02T03:22:06;9.63;86.82
75130;HTU21D;63703;44.716;37.846;2023-05-02T03:24:34;9.67;86.79
75130;HTU21D;63703;44.716;37.846;2023-05-02T03:27:01;9.71;86.77
75130;HTU21D;63703;44.716;37.846;2023-05-02T03:29:33;9.76;86.74
75130;HTU21D;63703;44.716;37.846;2023-05-02T03:31:59;9.81;86.71
75130;HTU21D;63703;44.716;37.846;2023-05-02T03:34:26;9.86;86.67
75130;HTU21D;63703;44.716;37.846;2023-05-02T03:36:53;9.91;86.64
75130;HTU21D;63703;44.716;37.846;2023-05-02T03:39:19;9.96;86.61
75130;HTU21D;63703;44.716;37.846;2023-05-02T03:41:46;10.03;86.58
75130;HTU21D;63703;44.716;37.846;2023-05-02T03:44:16;10.07;86.56
75130;HTU21D;63703;44.716;37.846;2023-05-02T03:46:42;10.12;86.54
75130;HTU21D;63703;44.716;37.846;2023-05-02T03:49:10;10.16;86.51
75130;HTU21D;63703;44.716;37.846;2023-05-02T03:51:40;10.24;86.48
75130;HTU21D;63703;44.716;37.846;2023-05-02T03:54:07;10.30;86.41
75130;HTU21D;63703;44.716;37.846;2023-05-02T03:56:35;10.38;86.35
75130;HTU21D;63703;44.716;37.846;2023-05-02T03:59:16;10.44;86.31
75130;HTU21D;63703;44.716;37.846;2023-05-02T04:01:42;10.52;86.25
75130;HTU21D;63703;44.716;37.846;2023-05-02T04:04:10;10.62;86.19
75130;HTU21D;63703;44.716;37.846;2023-05-02T04:06:43;10.70;86.11
75130;HTU21D;63703;44.716;37.846;2023-05-02T04:09:10;10.79;86.03
75130;HTU21D;63703;44.716;37.846;2023-05-02T04:11:45;10.89;85.94
75130;HTU21D;63703;44.716;37.846;2023-05-02T04:14:12;10.97;85.84
75130;HTU21D;63703;44.716;37.846;2023-05-02T04:16:40;11.09;85.74
75130;HTU21D;63703;44.716;37.846;2023-05-02T04:19:06;11.14;85.67
75130;HTU21D;63703;44.716;37.846;2023-05-02T04:21:35;11.24;85.60
75130;HTU21D;63703;44.716;37.846;2023-05-02T04:24:02;11.34;85.49
75130;HTU21D;63703;44.716;37.846;2023-05-02T04:26:29;11.49;85.27
75130;HTU21D;63703;44.716;37.846;2023-05-02T04:29:01;11.62;85.11
75130;HTU21D;63703;44.716;37.846;2023-05-02T04:31:27;11.78;84.86
75130;HTU21D;63703;44.716;37.846;2023-05-02T04:33:54;11.88;84.67
75130;HTU21D;63703;44.716;37.846;2023-05-02T04:36:24;11.97;84.41
75130;HTU21D;63703;44.716;37.846;2023-05-02T04:38:51;12.07;84.14
75130;HTU21D;63703;44.716;37.846;2023-05-02T04:41:18;12.17;83.80
75130;HTU21D;63703;44.716;37.846;2023-05-02T04:43:50;12.27;83.47
75130;HTU21D;63703;44.716;37.846;2023-05-02T04:46:17;12.36;83.13
75130;HTU21D;63703;44.716;37.846;2023-05-02T04:48:43;12.46;82.82
75130;HTU21D;63703;44.716;37.846;2023-05-02T04:51:09;12.60;82.53
75130;HTU21D;63703;44.716;37.846;2023-05-02T04:53:39;12.75;82.11
75130;HTU21D;63703;44.716;37.846;2023-05-02T04:56:05;12.88;81.88
75130;HTU21D;63703;44.716;37.846;2023-05-02T04:58:33;13.08;81.58
75130;HTU21D;63703;44.716;37.846;2023-05-02T05:01:03;13.24;81.23
75130;HTU21D;63703;44.716;37.846;2023-05-02T05:03:29;13.26;80.92
75130;HTU21D;63703;44.716;37.846;2023-05-02T05:05:56;13.18;80.14
75130;HTU21D;63703;44.716;37.846;2023-05-02T05:08:24;13.25;80.10
75130;HTU21D;63703;44.716;37.846;2023-05-02T05:10:50;13.38;79.47
75130;HTU21D;63703;44.716;37.846;2023-05-02T05:13:17;13.43;78.79
75130;HTU21D;63703;44.716;37.846;2023-05-02T05:15:46;13.46;78.73
75130;HTU21D;63703;44.716;37.846;2023-05-02T05:18:14;13.50;78.69
75130;HTU21D;63703;44.716;37.846;2023-05-02T05:20:40;13.55;78.38
75130;HTU21D;63703;44.716;37.846;2023-05-02T05:23:07;13.50;77.40
75130;HTU21D;63703;44.716;37.846;2023-05-02T05:25:33;13.38;77.04
75130;HTU21D;63703;44.716;37.846;2023-05-02T05:27:59;13.44;77.37
75130;HTU21D;63703;44.716;37.846;2023-05-02T05:30:26;13.61;77.22
75130;HTU21D;63703;44.716;37.846;2023-05-02T05:32:52;13.73;76.62
75130;HTU21D;63703;44.716;37.846;2023-05-02T05:35:18;13.80;76.50
75130;HTU21D;63703;44.716;37.846;2023-05-02T05:37:45;13.98;76.05
75130;HTU21D;63703;44.716;37.846;2023-05-02T05:40:15;13.99;74.62
75130;HTU21D;63703;44.716;37.846;2023-05-02T05:42:44;13.89;74.14
75130;HTU21D;63703;44.716;37.846;2023-05-02T05:45:17;13.88;74.47
75130;HTU21D;63703;44.716;37.846;2023-05-02T05:47:44;13.96;74.46
75130;HTU21D;63703;44.716;37.846;2023-05-02T05:50:10;14.10;74.68
75130;HTU21D;63703;44.716;37.846;2023-05-02T05:52:37;14.29;74.69
75130;HTU21D;63703;44.716;37.846;2023-05-02T05:55:04;14.38;74.22
75130;HTU21D;63703;44.716;37.846;2023-05-02T05:57:31;14.38;73.44
75130;HTU21D;63703;44.716;37.846;2023-05-02T05:59:57;14.24;73.13
75130;HTU21D;63703;44.716;37.846;2023-05-02T06:02:24;14.20;73.42
75130;HTU21D;63703;44.716;37.846;2023-05-02T06:04:49;14.23;73.36
75130;HTU21D;63703;44.716;37.846;2023-05-02T06:07:19;14.33;73.17
75130;HTU21D;63703;44.716;37.846;2023-05-02T06:09:44;14.27;72.80
75130;HTU21D;63703;44.716;37.846;2023-05-02T06:12:11;14.26;72.74
75130;HTU21D;63703;44.716;37.846;2023-05-02T06:14:38;14.21;72.56
75130;HTU21D;63703;44.716;37.846;2023-05-02T06:17:04;14.23;72.54
75130;HTU21D;63703;44.716;37.846;2023-05-02T06:19:30;14.24;71.81
75130;HTU21D;63703;44.716;37.846;2023-05-02T06:21:56;14.23;72.02
75130;HTU21D;63703;44.716;37.846;2023-05-02T06:24:22;14.30;71.95
75130;HTU21D;63703;44.716;37.846;2023-05-02T06:26:48;14.25;71.36
75130;HTU21D;63703;44.716;37.846;2023-05-02T06:29:13;14.21;71.61
75130;HTU21D;63703;44.716;37.846;2023-05-02T06:31:40;14.28;71.61
75130;HTU21D;63703;44.716;37.846;2023-05-02T06:34:06;14.27;71.26
75130;HTU21D;63703;44.716;37.846;2023-05-02T06:36:32;14.26;70.87
75130;HTU21D;63703;44.716;37.846;2023-05-02T06:38:58;14.19;71.01
75130;HTU21D;63703;44.716;37.846;2023-05-02T06:41:24;14.25;71.23
75130;HTU21D;63703;44.716;37.846;2023-05-02T06:43:50;14.28;71.41
75130;HTU21D;63703;44.716;37.846;2023-05-02T06:46:16;14.35;71.14
75130;HTU21D;63703;44.716;37.846;2023-05-02T06:48:43;14.33;71.04
75130;HTU21D;63703;44.716;37.846;2023-05-02T06:51:09;14.35;70.71
75130;HTU21D;63703;44.716;37.846;2023-05-02T06:53:35;14.40;70.85
75130;HTU21D;63703;44.716;37.846;2023-05-02T06:56:01;14.39;70.46
75130;HTU21D;63703;44.716;37.846;2023-05-02T06:58:29;14.43;70.70
75130;HTU21D;63703;44.716;37.846;2023-05-02T07:00:55;14.52;70.36
75130;HTU21D;63703;44.716;37.846;2023-05-02T07:03:21;14.54;70.00
75130;HTU21D;63703;44.716;37.846;2023-05-02T07:05:47;14.56;70.25
75130;HTU21D;63703;44.716;37.846;2023-05-02T07:08:13;14.67;70.39
75130;HTU21D;63703;44.716;37.846;2023-05-02T07:10:38;14.74;70.10
75130;HTU21D;63703;44.716;37.846;2023-05-02T07:13:04;14.78;70.08
75130;HTU21D;63703;44.716;37.846;2023-05-02T07:15:30;14.85;69.60
75130;HTU21D;63703;44.716;37.846;2023-05-02T07:17:56;14.91;69.65
75130;HTU21D;63703;44.716;37.846;2023-05-02T07:20:22;15.01;69.32
75130;HTU21D;63703;44.716;37.846;2023-05-02T07:22:48;15.02;69.12
75130;HTU21D;63703;44.716;37.846;2023-05-02T07:25:15;15.06;69.47
75130;HTU21D;63703;44.716;37.846;2023-05-02T07:27:40;15.13;69.36
75130;HTU21D;63703;44.716;37.846;2023-05-02T07:30:07;15.24;69.04
75130;HTU21D;63703;44.716;37.846;2023-05-02T07:32:33;15.24;68.47
75130;HTU21D;63703;44.716;37.846;2023-05-02T07:34:59;15.17;68.36
75130;HTU21D;63703;44.716;37.846;2023-05-02T07:37:25;15.21;68.39
75130;HTU21D;63703;44.716;37.846;2023-05-02T07:39:51;15.28;68.52
75130;HTU21D;63703;44.716;37.846;2023-05-02T07:42:17;15.48;68.13
75130;HTU21D;63703;44.716;37.846;2023-05-02T07:44:43;15.58;67.65
75130;HTU21D;63703;44.716;37.846;2023-05-02T07:47:09;15.57;67.51
75130;HTU21D;63703;44.716;37.846;2023-05-02T07:49:35;15.59;67.39
75130;HTU21D;63703;44.716;37.846;2023-05-02T07:52:01;15.67;67.65
75130;HTU21D;63703;44.716;37.846;2023-05-02T07:54:27;15.78;67.05
75130;HTU21D;63703;44.716;37.846;2023-05-02T07:56:53;15.86;66.61
75130;HTU21D;63703;44.716;37.846;2023-05-02T07:59:22;15.89;66.59
75130;HTU21D;63703;44.716;37.846;2023-05-02T08:01:48;15.89;66.90
75130;HTU21D;63703;44.716;37.846;2023-05-02T08:04:14;15.85;67.05
75130;HTU21D;63703;44.716;37.846;2023-05-02T08:06:40;15.77;66.63
75130;HTU21D;63703;44.716;37.846;2023-05-02T08:09:07;15.67;67.01
75130;HTU21D;63703;44.716;37.846;2023-05-02T08:11:33;15.68;67.00
75130;HTU21D;63703;44.716;37.846;2023-05-02T08:13:59;15.66;66.64
75130;HTU21D;63703;44.716;37.846;2023-05-02T08:16:25;15.58;66.43
75130;HTU21D;63703;44.716;37.846;2023-05-02T08:18:51;15.49;66.64
75130;HTU21D;63703;44.716;37.846;2023-05-02T08:21:17;15.44;66.65
75130;HTU21D;63703;44.716;37.846;2023-05-02T08:23:43;15.27;66.72
75130;HTU21D;63703;44.716;37.846;2023-05-02T08:26:10;15.16;67.17
75130;HTU21D;63703;44.716;37.846;2023-05-02T08:28:36;15.14;67.39
75130;HTU21D;63703;44.716;37.846;2023-05-02T08:31:02;15.18;67.52
75130;HTU21D;63703;44.716;37.846;2023-05-02T08:33:28;15.38;67.18
75130;HTU21D;63703;44.716;37.846;2023-05-02T08:35:54;15.80;66.72
75130;HTU21D;63703;44.716;37.846;2023-05-02T08:38:20;16.15;66.15
75130;HTU21D;63703;44.716;37.846;2023-05-02T08:40:46;16.21;65.51
75130;HTU21D;63703;44.716;37.846;2023-05-02T08:43:12;16.19;65.37
75130;HTU21D;63703;44.716;37.846;2023-05-02T08:45:42;16.05;65.32
75130;HTU21D;63703;44.716;37.846;2023-05-02T08:48:10;15.93;65.55
75130;HTU21D;63703;44.716;37.846;2023-05-02T08:50:43;15.85;65.93
75130;HTU21D;63703;44.716;37.846;2023-05-02T08:53:12;15.78;65.91
75130;HTU21D;63703;44.716;37.846;2023-05-02T08:55:40;15.56;65.13
75130;HTU21D;63703;44.716;37.846;2023-05-02T08:58:07;15.26;65.63
75130;HTU21D;63703;44.716;37.846;2023-05-02T09:00:41;15.07;65.82
75130;HTU21D;63703;44.716;37.846;2023-05-02T09:03:29;14.81;65.98
75130;HTU21D;63703;44.716;37.846;2023-05-02T09:06:18;14.52;66.57
75130;HTU21D;63703;44.716;37.846;2023-05-02T09:08:46;14.28;67.39
75130;HTU21D;63703;44.716;37.846;2023-05-02T09:11:18;14.14;67.98
75130;HTU21D;63703;44.716;37.846;2023-05-02T09:13:46;14.05;68.49
75130;HTU21D;63703;44.716;37.846;2023-05-02T09:16:17;13.95;69.07
75130;HTU21D;63703;44.716;37.846;2023-05-02T09:18:48;14.01;69.49
75130;HTU21D;63703;44.716;37.846;2023-05-02T09:24:14;14.20;70.32
75130;HTU21D;63703;44.716;37.846;2023-05-02T09:26:41;14.27;70.07
75130;HTU21D;63703;44.716;37.846;2023-05-02T09:29:08;14.40;70.16
75130;HTU21D;63703;44.716;37.846;2023-05-02T09:31:34;14.50;69.98
75130;HTU21D;63703;44.716;37.846;2023-05-02T09:34:09;14.62;69.68
75130;HTU21D;63703;44.716;37.846;2023-05-02T09:36:45;14.71;68.87
75130;HTU21D;63703;44.716;37.846;2023-05-02T09:39:14;14.77;69.26
75130;HTU21D;63703;44.716;37.846;2023-05-02T09:41:44;14.75;68.96
75130;HTU21D;63703;44.716;37.846;2023-05-02T09:44:22;14.73;69.23
75130;HTU21D;63703;44.716;37.846;2023-05-02T09:46:51;14.70;69.45
75130;HTU21D;63703;44.716;37.846;2023-05-02T09:49:17;14.60;69.68
75130;HTU21D;63703;44.716;37.846;2023-05-02T09:51:47;14.63;70.16
75130;HTU21D;63703;44.716;37.846;2023-05-02T09:54:13;14.66;70.39
75130;HTU21D;63703;44.716;37.846;2023-05-02T09:56:53;14.66;70.44
75130;HTU21D;63703;44.716;37.846;2023-05-02T09:59:23;14.51;70.58
75130;HTU21D;63703;44.716;37.846;2023-05-02T10:01:54;14.57;70.71
75130;HTU21D;63703;44.716;37.846;2023-05-02T10:04:21;14.66;70.67
75130;HTU21D;63703;44.716;37.846;2023-05-02T10:06:48;14.74;70.48
75130;HTU21D;63703;44.716;37.846;2023-05-02T10:09:16;14.87;70.35
75130;HTU21D;63703;44.716;37.846;2023-05-02T10:11:44;15.02;70.19
75130;HTU21D;63703;44.716;37.846;2023-05-02T10:14:11;15.10;70.16
75130;HTU21D;63703;44.716;37.846;2023-05-02T10:19:42;14.99;70.42
75130;HTU21D;63703;44.716;37.846;2023-05-02T10:22:11;14.85;70.82
75130;HTU21D;63703;44.716;37.846;2023-05-02T10:24:39;14.80;70.94
75130;HTU21D;63703;44.716;37.846;2023-05-02T10:27:06;14.73;71.16
75130;HTU21D;63703;44.716;37.846;2023-05-02T10:29:32;14.69;71.36
75130;HTU21D;63703;44.716;37.846;2023-05-02T10:32:00;14.62;71.34
75130;HTU21D;63703;44.716;37.846;2023-05-02T10:34:31;14.49;71.11
75130;HTU21D;63703;44.716;37.846;2023-05-02T10:36:57;14.42;71.55
75130;HTU21D;63703;44.716;37.846;2023-05-02T10:39:26;14.45;71.93
75130;HTU21D;63703;44.716;37.846;2023-05-02T10:41:54;14.64;72.01
75130;HTU21D;63703;44.716;37.846;2023-05-02T10:44:38;14.88;72.08
75130;HTU21D;63703;44.716;37.846;2023-05-02T10:47:20;14.97;70.64
75130;HTU21D;63703;44.716;37.846;2023-05-02T10:50:00;14.91;71.05
75130;HTU21D;63703;44.716;37.846;2023-05-02T10:55:18;14.78;70.88
75130;HTU21D;63703;44.716;37.846;2023-05-02T11:00:29;14.71;71.58
75130;HTU21D;63703;44.716;37.846;2023-05-02T11:02:57;14.55;71.91
75130;HTU21D;63703;44.716;37.846;2023-05-02T11:05:24;14.49;72.32
75130;HTU21D;63703;44.716;37.846;2023-05-02T11:10:45;14.42;72.65
75130;HTU21D;63703;44.716;37.846;2023-05-02T11:13:11;14.42;72.83
75130;HTU21D;63703;44.716;37.846;2023-05-02T11:18:07;14.42;72.99
75130;HTU21D;63703;44.716;37.846;2023-05-02T11:20:38;14.41;73.12
75130;HTU21D;63703;44.716;37.846;2023-05-02T11:25:49;14.38;73.25
75130;HTU21D;63703;44.716;37.846;2023-05-02T11:28:41;14.29;73.57
75130;HTU21D;63703;44.716;37.846;2023-05-02T11:34:01;14.09;73.61
75130;HTU21D;63703;44.716;37.846;2023-05-02T11:36:31;14.04;73.99
75130;HTU21D;63703;44.716;37.846;2023-05-02T11:39:00;14.00;73.88
75130;HTU21D;63703;44.716;37.846;2023-05-02T11:41:41;13.99;73.06
75130;HTU21D;63703;44.716;37.846;2023-05-02T11:44:07;13.85;73.46
75130;HTU21D;63703;44.716;37.846;2023-05-02T11:46:37;13.84;73.28
75130;HTU21D;63703;44.716;37.846;2023-05-02T11:49:04;13.80;72.93
75130;HTU21D;63703;44.716;37.846;2023-05-02T11:51:30;13.90;72.69
75130;HTU21D;63703;44.716;37.846;2023-05-02T11:53:56;14.14;72.45
75130;HTU21D;63703;44.716;37.846;2023-05-02T11:56:23;14.55;71.95
75130;HTU21D;63703;44.716;37.846;2023-05-02T11:59:01;15.19;69.58
75130;HTU21D;63703;44.716;37.846;2023-05-02T12:01:28;15.59;70.16
75130;HTU21D;63703;44.716;37.846;2023-05-02T12:04:05;15.83;69.23
75130;HTU21D;63703;44.716;37.846;2023-05-02T12:06:32;15.87;68.90
75130;HTU21D;63703;44.716;37.846;2023-05-02T12:09:13;15.91;67.93
75130;HTU21D;63703;44.716;37.846;2023-05-02T12:11:43;15.86;68.42
75130;HTU21D;63703;44.716;37.846;2023-05-02T12:14:10;15.80;68.33
75130;HTU21D;63703;44.716;37.846;2023-05-02T12:16:36;15.65;67.98
75130;HTU21D;63703;44.716;37.846;2023-05-02T12:19:02;15.52;68.12
75130;HTU21D;63703;44.716;37.846;2023-05-02T12:21:29;15.48;68.44
75130;HTU21D;63703;44.716;37.846;2023-05-02T12:23:55;15.45;68.41
75130;HTU21D;63703;44.716;37.846;2023-05-02T12:26:25;15.37;68.78
75130;HTU21D;63703;44.716;37.846;2023-05-02T12:28:54;15.28;68.77
75130;HTU21D;63703;44.716;37.846;2023-05-02T12:31:20;15.08;69.13
75130;HTU21D;63703;44.716;37.846;2023-05-02T12:33:46;14.88;69.70
75130;HTU21D;63703;44.716;37.846;2023-05-02T12:36:19;14.79;70.13
75130;HTU21D;63703;44.716;37.846;2023-05-02T12:38:54;14.64;70.77
75130;HTU21D;63703;44.716;37.846;2023-05-02T12:41:37;14.56;71.19
75130;HTU21D;63703;44.716;37.846;2023-05-02T12:44:03;14.52;71.37
75130;HTU21D;63703;44.716;37.846;2023-05-02T12:46:30;14.40;71.35
75130;HTU21D;63703;44.716;37.846;2023-05-02T12:49:08;14.29;71.81
75130;HTU21D;63703;44.716;37.846;2023-05-02T12:51:38;14.12;72.19
75130;HTU21D;63703;44.716;37.846;2023-05-02T12:54:04;13.98;72.85
75130;HTU21D;63703;44.716;37.846;2023-05-02T12:56:41;13.88;73.22
75130;HTU21D;63703;44.716;37.846;2023-05-02T12:59:27;13.83;73.32
75130;HTU21D;63703;44.716;37.846;2023-05-02T13:01:54;13.74;73.28
75130;HTU21D;63703;44.716;37.846;2023-05-02T13:04:36;13.63;73.75
75130;HTU21D;63703;44.716;37.846;2023-05-02T13:07:06;13.53;73.78
75130;HTU21D;63703;44.716;37.846;2023-05-02T13:09:34;13.39;74.02
75130;HTU21D;63703;44.716;37.846;2023-05-02T13:12:00;13.32;74.30
75130;HTU21D;63703;44.716;37.846;2023-05-02T13:14:28;13.18;74.60
75130;HTU21D;63703;44.716;37.846;2023-05-02T13:16:54;13.11;74.84
75130;HTU21D;63703;44.716;37.846;2023-05-02T13:19:21;13.05;75.07
75130;HTU21D;63703;44.716;37.846;2023-05-02T13:21:47;13.00;75.19
75130;HTU21D;63703;44.716;37.846;2023-05-02T13:24:14;12.94;75.37
75130;HTU21D;63703;44.716;37.846;2023-05-02T13:26:42;12.94;75.44
75130;HTU21D;63703;44.716;37.846;2023-05-02T13:29:08;12.96;75.53
75130;HTU21D;63703;44.716;37.846;2023-05-02T13:31:36;13.03;75.65
75130;HTU21D;63703;44.716;37.846;2023-05-02T13:34:05;13.08;75.71
75130;HTU21D;63703;44.716;37.846;2023-05-02T13:36:31;13.09;75.69
75130;HTU21D;63703;44.716;37.846;2023-05-02T13:38:57;13.11;75.73
75130;HTU21D;63703;44.716;37.846;2023-05-02T13:41:23;13.12;75.73
75130;HTU21D;63703;44.716;37.846;2023-05-02T13:43:49;13.14;75.63
75130;HTU21D;63703;44.716;37.846;2023-05-02T13:46:15;13.16;75.57
75130;HTU21D;63703;44.716;37.846;2023-05-02T13:48:41;13.18;75.41
75130;HTU21D;63703;44.716;37.846;2023-05-02T13:51:07;13.20;75.31
75130;HTU21D;63703;44.716;37.846;2023-05-02T13:53:33;13.18;75.05
75130;HTU21D;63703;44.716;37.846;2023-05-02T13:56:00;13.15;75.15
75130;HTU21D;63703;44.716;37.846;2023-05-02T13:58:26;13.18;75.21
75130;HTU21D;63703;44.716;37.846;2023-05-02T14:00:52;13.24;75.18
75130;HTU21D;63703;44.716;37.846;2023-05-02T14:03:18;13.29;75.02
75130;HTU21D;63703;44.716;37.846;2023-05-02T14:05:44;13.25;75.01
75130;HTU21D;63703;44.716;37.846;2023-05-02T14:08:10;13.30;75.00
75130;HTU21D;63703;44.716;37.846;2023-05-02T14:10:37;13.36;74.95
75130;HTU21D;63703;44.716;37.846;2023-05-02T14:13:03;13.37;74.90
75130;HTU21D;63703;44.716;37.846;2023-05-02T14:15:29;13.40;74.84
75130;HTU21D;63703;44.716;37.846;2023-05-02T14:17:56;13.44;74.85
75130;HTU21D;63703;44.716;37.846;2023-05-02T14:20:22;13.44;74.67
75130;HTU21D;63703;44.716;37.846;2023-05-02T14:22:48;13.41;74.58
75130;HTU21D;63703;44.716;37.846;2023-05-02T14:25:14;13.38;74.44
75130;HTU21D;63703;44.716;37.846;2023-05-02T14:27:45;13.34;74.50
75130;HTU21D;63703;44.716;37.846;2023-05-02T14:30:11;13.36;74.45
75130;HTU21D;63703;44.716;37.846;2023-05-02T14:32:38;13.37;74.51
75130;HTU21D;63703;44.716;37.846;2023-05-02T14:35:04;13.47;74.53
75130;HTU21D;63703;44.716;37.846;2023-05-02T14:37:30;13.49;74.51
75130;HTU21D;63703;44.716;37.846;2023-05-02T14:39:56;13.55;74.52
75130;HTU21D;63703;44.716;37.846;2023-05-02T14:42:24;13.62;74.52
75130;HTU21D;63703;44.716;37.846;2023-05-02T14:44:50;13.68;74.41
75130;HTU21D;63703;44.716;37.846;2023-05-02T14:47:16;13.75;74.26
75130;HTU21D;63703;44.716;37.846;2023-05-02T14:49:42;13.78;74.15
75130;HTU21D;63703;44.716;37.846;2023-05-02T14:52:08;13.81;74.13
75130;HTU21D;63703;44.716;37.846;2023-05-02T14:54:34;13.81;74.09
75130;HTU21D;63703;44.716;37.846;2023-05-02T14:57:01;13.84;74.06
75130;HTU21D;63703;44.716;37.846;2023-05-02T14:59:31;13.91;73.87
75130;HTU21D;63703;44.716;37.846;2023-05-02T15:01:57;13.96;73.81
75130;HTU21D;63703;44.716;37.846;2023-05-02T15:04:23;14.08;73.70
75130;HTU21D;63703;44.716;37.846;2023-05-02T15:06:50;14.15;73.61
75130;HTU21D;63703;44.716;37.846;2023-05-02T15:09:18;14.17;73.51
75130;HTU21D;63703;44.716;37.846;2023-05-02T15:11:45;14.17;73.44
75130;HTU21D;63703;44.716;37.846;2023-05-02T15:14:10;14.18;73.34
75130;HTU21D;63703;44.716;37.846;2023-05-02T15:16:37;14.19;73.25
75130;HTU21D;63703;44.716;37.846;2023-05-02T15:19:04;14.21;73.15
75130;HTU21D;63703;44.716;37.846;2023-05-02T15:21:30;14.17;73.01
75130;HTU21D;63703;44.716;37.846;2023-05-02T15:23:56;14.09;72.92
75130;HTU21D;63703;44.716;37.846;2023-05-02T15:26:22;14.04;72.93
75130;HTU21D;63703;44.716;37.846;2023-05-02T15:28:50;13.97;72.98
75130;HTU21D;63703;44.716;37.846;2023-05-02T15:31:16;13.91;73.00
75130;HTU21D;63703;44.716;37.846;2023-05-02T15:33:42;13.86;72.93
75130;HTU21D;63703;44.716;37.846;2023-05-02T15:36:08;13.82;72.85
75130;HTU21D;63703;44.716;37.846;2023-05-02T15:38:34;13.80;72.87
75130;HTU21D;63703;44.716;37.846;2023-05-02T15:41:04;13.76;72.86
75130;HTU21D;63703;44.716;37.846;2023-05-02T15:43:31;13.74;72.84
75130;HTU21D;63703;44.716;37.846;2023-05-02T15:45:58;13.70;72.84
75130;HTU21D;63703;44.716;37.846;2023-05-02T15:48:29;13.66;72.83
75130;HTU21D;63703;44.716;37.846;2023-05-02T15:50:55;13.61;72.93
75130;HTU21D;63703;44.716;37.846;2023-05-02T15:53:22;13.58;73.04
75130;HTU21D;63703;44.716;37.846;2023-05-02T15:55:49;13.52;73.16
75130;HTU21D;63703;44.716;37.846;2023-05-02T15:58:16;13.45;73.28